createdAt,value
2023-01-10T00:17:19.427Z,7.40
2023-01-10T00:54:39.885Z,12.60
2023-01-10T01:13:19.404Z,9.00
2023-01-10T01:32:00.246Z,11.40
2023-01-10T02:09:22.559Z,12.20
2023-01-10T02:28:03.173Z,18.80
2023-01-10T02:46:39.106Z,22.80
2023-01-10T03:05:22.340Z,16.50
2023-01-10T03:24:05.152Z,12.60
2023-01-10T03:42:42.007Z,7.50
2023-01-10T04:01:17.744Z,4.60
2023-01-10T04:19:56.977Z,14.80
2023-01-10T04:57:22.278Z,7.10
2023-01-10T05:15:57.490Z,11.90
2023-01-10T05:34:38.171Z,17.60
2023-01-10T05:53:16.982Z,10.50
2023-01-10T06:11:56.281Z,15.30
2023-01-10T06:30:34.772Z,13.70
2023-01-10T06:49:14.949Z,11.60
2023-01-10T07:07:58.691Z,7.50
2023-01-10T07:26:37.735Z,14.40
2023-01-10T07:45:18.784Z,13.20
2023-01-10T08:03:59.461Z,13.80
2023-01-10T08:22:40.497Z,9.10
2023-01-10T08:41:23.130Z,9.50
2023-01-10T09:00:05.783Z,14.60
2023-01-10T09:18:49.241Z,9.70
2023-01-10T09:37:33.477Z,9.80
2023-01-10T09:56:18.018Z,18.10
2023-01-10T10:15:12.479Z,6.20
2023-01-10T10:34:09.990Z,2.90
2023-01-10T10:52:46.740Z,1.70
2023-01-10T11:49:09.559Z,0.70
2023-01-10T12:07:50.617Z,1.10
2023-01-10T12:26:37.806Z,0.80
2023-01-10T12:45:08.992Z,0.40
2023-01-10T13:03:48.899Z,0.90
2023-01-10T13:22:24.299Z,0.30
2023-01-10T13:41:17.540Z,1.20
2023-01-10T13:59:41.905Z,1.40
2023-01-10T14:18:29.025Z,0.80
2023-01-10T14:37:11.241Z,0.70
2023-01-10T14:55:41.557Z,9.40
2023-01-10T15:14:01.278Z,0.70
2023-01-10T15:32:34.424Z,0.80
2023-01-10T15:51:12.233Z,1.60
2023-01-10T16:09:46.379Z,11.20
2023-01-10T16:28:23.429Z,5.10
2023-01-10T16:47:00.201Z,2.00
2023-01-10T17:05:38.665Z,12.20
2023-01-10T17:24:15.297Z,6.40
2023-01-10T17:42:58.105Z,7.50
2023-01-10T18:20:10.742Z,6.00
2023-01-10T18:57:25.911Z,7.90
2023-01-10T19:15:59.628Z,5.20
2023-01-10T19:34:39.552Z,9.20
2023-01-10T19:53:15.677Z,13.70
2023-01-10T20:11:52.258Z,10.30
2023-01-10T20:49:06.722Z,16.60
2023-01-10T21:07:46.217Z,4.80
2023-01-10T21:26:23.457Z,3.40
2023-01-10T21:45:05.761Z,4.90
2023-01-10T22:03:39.272Z,4.10
2023-01-10T22:59:33.699Z,4.80
2023-01-10T23:18:12.178Z,1.60
2023-01-10T23:36:49.963Z,5.30
2023-01-10T23:55:27.366Z,3.30
